YLVT weather

CLOSED RAAF Williams, Laverton Base
Laverton, Victoria, Australia

Public forecast

Using degrees Celsius for public forecast. Weather courtesy of forecast.io.

METAR (pilot weather report)

Closest report is Melbourne Essendon Airport, 11.0 nm (20.4 km) NE. Retrieved 2018/08/20 13:00 UTC (20 minutes ago):

YMEN 201300Z AUTO 29011KT 9999 // BKN044 BKN051 OVC063 10/06 Q1018

TAF (pilot weather forecast)

Closest forecast is Melbourne International Airport, 12.3 nm (22.8 km) NNE. Retrieved 2018/08/20 12:36 UTC (44 minutes ago):

TAF YMML 201108Z 2012/2118 29014KT 9999 -SHRA FEW035 BKN045 FM201300 26014KT 9999 -SHRA SCT020 BKN030 FM201800 27012KT 9999 BKN045 INTER 2013/2017 5000 SHRA SCT015 BKN020